Startpagina
METAR-TAF:

METAR-TAF

Vliegvelden :

Vliegbasis Leeuwarden

Leeuwarden, Nederland

breedte: 53-13N, lengte: 005-46E, hoogte: 1 m

Actueel weer

Dit bericht is 16 minuten geleden gemaakt, om 15:55 UTC
Wind 9 kt uit het oosten, variërend tussen het noordnoordoosten en het zuiden
Temperatuur 21°C
Vochtigheid 60%
Druk 1021 hPa
Zicht 10 km of meer
Weinig wolken op 4600 ft

METAR: EHLW 201555Z AUTO 08009KT 020V170 9999 FEW046 21/13 Q1021 BLU

Tijdstip: 18:11 (16:11 UTC)


TAF: ontbreekt

Waarnemingen en weersverwachtingen van meer dan 4000 vliegvelden (METAR en TAF).

De beschikbare stations zijn de gele en rode punten op de kaart.

Ga met uw muis naar het station om de naam te zien.

Klik dan om waarnemingen en weersverwachtingen te zien.

kaart wijzigen: klik op de groene knoppen met een zwart kruis om in te zoomen, op de groene knop met een streepje om uit te zoomen of op de groene pijlen voor aangrenzende kaarten.


METAR-TAF: